Latest Coastal Weather Observations for Robe Airport

IDS60701

Issued at 3:51 am CST Tuesday 31 May 2016 (issued every 10 minutes, with the page automatically refreshed every 10 minutes)

About coastal observations | Map of coastal stations | Coastal observations for SA | Marine services | Other Formats
Station Details ID: 026105 Name: ROBE AIRFIELD Lat: -37.18 Lon: 139.81 Height: 3.0 m
Data from the previous 72 hours. | See also: Recent months at Robe Airport
Date/Time
CST
Temp

°C
Wind Pressure Rain
since 9am
mm
Weather Cloud Vis
km
Sea
Height
m
Swell
Dir
 
Speed
knots
Gust
knots
hPa Trend Height
m
Period
s
Dir
31/03:30am 10.2 NE 11 15 1023.7 - 3.8 - - - - - - -
31/03:00am 10.2 NE 11 15 1023.8 - 3.8 - - - - - - -
31/02:30am 10.3 NE 11 15 1023.9 - 3.8 - - - - - - -
31/02:00am 10.1 NE 11 17 1023.7 - 3.8 - - - - - - -
31/01:30am 10.3 NE 11 14 1023.9 - 3.8 - - - - - - -
31/01:00am 10.3 NE 11 15 1023.9 - 3.8 - - - - - - -
31/12:30am 10.8 NE 12 16 1024.0 - 3.8 - - - - - - -
31/12:00am 10.8 NE 11 16 1024.1 - 3.8 - - - - - - -
 
Date/Time
CST
Temp

°C
Wind Pressure Rain
since 9am
mm
Weather Cloud Vis
km
Sea
Height
m
Swell
Dir
 
Speed
knots
Gust
knots
hPa Trend Height
m
Period
s
Dir
30/11:30pm 10.5 NE 11 15 1024.1 - 3.8 - - - - - - -
30/11:00pm 10.2 NE 11 14 1024.1 - 3.8 - - - - - - -
30/10:30pm 9.9 NE 10 14 1023.9 - 3.8 - - - - - - -
30/10:00pm 10.2 NE 10 14 1023.8 - 3.8 - - - - - - -
30/09:30pm 10.1 NE 9 14 1023.7 - 3.8 - - - - - - -
30/09:00pm 10.3 ENE 9 13 1023.5 - 3.8 - - - - - - -
30/08:30pm 10.8 NE 10 14 1023.3 - 3.8 - - - - - - -
30/08:00pm 10.6 ENE 11 15 1023.0 - 3.8 - - - - - - -
30/07:30pm 10.9 NE 9 13 1023.1 - 3.8 - - - - - - -
30/07:00pm 11.0 ENE 9 13 1022.9 - 3.8 - - - - - - -
30/06:30pm 11.5 ENE 8 12 1022.7 - 3.4 - - - - - - -
30/06:00pm 11.4 ENE 8 13 1022.1 - 3.4 - - - - - - -
30/05:30pm 11.4 ENE 8 11 1021.9 - 3.4 - - - - - - -
30/05:00pm 11.7 ENE 6 8 1021.8 - 3.4 - - - - - - -
30/04:30pm 11.7 ENE 6 10 1021.5 - 3.4 - - - - - - -
30/04:00pm 11.5 ENE 7 9 1021.3 - 3.4 - - - - - - -
30/03:30pm 11.2 ENE 8 12 1021.1 - 3.0 - - - - - - -
30/03:00pm 11.3 NE 8 10 1021.2 - 1.2 Rain - - - - - -
30/02:30pm 12.1 NE 8 11 1021.3 - 0.2 - - - - - - -
30/02:00pm 12.8 NE 9 13 1021.1 - 0.0 - - - - - - -
30/01:30pm 13.2 NE 11 17 1020.9 - 0.0 - - - - - - -
30/01:00pm 13.4 NE 12 16 1020.8 - 0.0 - - - - - - -
30/12:30pm 13.2 NE 13 17 1021.0 - 0.0 - - - - - - -
30/12:00pm 12.7 NE 13 18 1021.5 - 0.0 - - - - - - -
30/11:30am 12.0 NE 10 16 1021.9 - 0.0 - - - - - - -
30/11:00am 11.4 NE 12 17 1022.2 - 0.0 - - - - - - -
30/10:30am 11.3 NE 12 18 1022.3 - 0.0 - - - - - - -
30/10:00am 10.7 NE 13 18 1022.3 - 0.0 - - - - - - -
30/09:30am 10.0 NE 13 18 1022.0 - 0.0 - - - - - - -
30/09:00am 9.3 NE 13 18 1021.9 - 0.0 - - - - - - -
30/08:30am 8.5 NE 12 16 1021.9 - 0.0 - - - - - - -
30/08:00am 7.8 NE 11 15 1021.8 - 0.0 - - - - - - -
30/07:30am 7.2 ENE 10 14 1021.7 - 0.0 - - - - - - -
30/07:00am 7.1 NE 9 12 1021.5 - 0.0 - - - - - - -
30/06:30am 7.1 NE 9 12 1021.3 - 0.0 - - - - - - -
30/06:00am 7.1 NE 9 12 1021.1 - 0.0 - - - - - - -
30/05:30am 6.9 NE 9 11 1021.0 - 0.0 - - - - - - -
30/05:00am 6.4 NE 7 9 1020.9 - 0.0 - - - - - - -
30/04:30am 6.3 NE 8 11 1020.7 - 0.0 - - - - - - -
30/04:00am 6.3 NE 9 13 1020.7 - 0.0 - - - - - - -
30/03:30am 6.2 NE 9 12 1020.7 - 0.0 - - - - - - -
30/03:00am 5.9 NE 10 13 1020.8 - 0.0 - - - - - - -
30/02:30am 5.7 NE 8 11 1020.8 - 0.0 - - - - - - -
30/02:00am 5.6 NE 9 11 1020.8 - 0.0 - - - - - - -
30/01:30am 5.4 NE 8 10 1020.7 - 0.0 - - - - - - -
30/01:00am 5.3 NE 7 10 1020.7 - 0.0 - - - - - - -
30/12:30am 5.1 NE 7 10 1020.7 - 0.0 - - - - - - -
30/12:00am 5.0 NE 7 8 1020.8 - 0.0 - - - - - - -
 
Date/Time
CST
Temp

°C
Wind Pressure Rain
since 9am
mm
Weather Cloud Vis
km
Sea
Height
m
Swell
Dir
 
Speed
knots
Gust
knots
hPa Trend Height
m
Period
s
Dir
29/11:30pm 4.9 NE 6 8 1020.6 - 0.0 - - - - - - -
29/11:00pm 4.4 NE 6 6 1020.7 - 0.0 - - - - - - -
29/10:30pm 4.5 NE 5 7 1020.8 - 0.0 - - - - - - -
29/10:00pm 4.7 NE 5 6 1020.7 - 0.0 - - - - - - -
29/09:30pm 5.2 ENE 6 8 1020.7 - 0.0 - - - - - - -
29/09:00pm 5.8 E 5 6 1020.7 - 0.0 - - - - - - -
29/08:30pm 6.0 ENE 4 6 1020.7 - 0.0 - - - - - - -
29/08:00pm 6.0 ENE 5 8 1020.6 - 0.0 - - - - - - -
29/07:30pm 5.4 E 3 5 1020.6 - 0.0 - - - - - - -
29/07:00pm 5.8 E 5 6 1020.5 - 0.0 - - - - - - -
29/06:30pm 6.1 E 3 4 1020.3 - 0.0 - - - - - - -
29/06:00pm 6.5 E 4 5 1020.0 - 0.0 - - - - - - -
29/05:30pm 7.6 E 5 6 1019.8 - 0.0 - - - - - - -
29/05:00pm 8.7 E 5 6 1019.6 - 0.0 - - - - - - -
29/04:30pm 10.4 ENE 6 9 1019.5 - 0.0 - - - - - - -
29/04:00pm 11.8 NE 6 8 1019.4 - 0.0 - - - - - - -
29/03:30pm 12.1 NE 7 11 1019.5 - 0.0 - - - - - - -
29/03:00pm 13.2 NE 7 10 1019.5 - 0.0 - - - - - - -
29/02:30pm 12.9 NE 8 11 1019.6 - 0.0 - - - - - - -
29/02:00pm 13.0 NE 8 12 1019.5 - 0.0 - - - - - - -
29/01:30pm 13.1 NE 9 12 1019.6 - 0.0 - - - - - - -
29/01:00pm 13.5 NNE 9 12 1019.9 - 0.0 - - - - - - -
29/12:30pm 13.1 NNE 10 15 1020.0 - 0.0 - - - - - - -
29/12:00pm 12.9 NE 9 13 1020.4 - 0.0 - - - - - - -
29/11:30am 12.5 ENE 11 16 1020.6 - 0.0 - - - - - - -
29/11:00am 12.3 NE 10 14 1020.8 - 0.0 - - - - - - -
29/10:30am 11.9 NE 11 14 1021.0 - 0.0 - - - - - - -
29/10:00am 11.6 NE 11 15 1021.0 - 0.0 - - - - - - -
29/09:30am 11.2 ENE 11 15 1021.1 - 0.0 - - - - - - -
29/09:00am 10.7 ENE 7 11 1021.0 - 0.0 - - - - - - -
29/08:30am 8.9 NE 6 8 1020.9 - 0.0 - - - - - - -
29/08:00am 8.6 NE 5 7 1020.7 - 0.0 - - - - - - -
29/07:30am 7.8 NE 5 7 1020.4 - 0.0 - - - - - - -
29/07:00am 6.3 NE 4 6 1020.2 - 0.0 - - - - - - -
29/06:30am 7.5 ENE 5 7 1019.9 - 0.0 - - - - - - -
29/06:00am 8.9 E 4 6 1019.9 - 0.0 - - - - - - -
29/05:30am 9.0 E 3 4 1019.5 - 0.0 - - - - - - -
29/05:00am 9.3 E 5 7 1019.2 - 0.0 - - - - - - -
29/04:30am 9.5 E 5 7 1019.3 - 0.0 - - - - - - -
29/04:00am 9.7 ESE 4 5 1019.2 - 0.0 - - - - - - -
29/03:30am 9.4 ESE 3 4 1019.2 - 0.0 - - - - - - -
29/03:00am 9.6 ESE 3 4 1019.2 - 0.0 - - - - - - -
29/02:30am 9.8 ESE 3 4 1019.2 - 0.0 - - - - - - -
29/02:00am 9.9 SE 3 6 1019.3 - 0.0 - - - - - - -
29/01:30am 10.3 SE 1 1 1019.3 - 0.0 - - - - - - -
29/01:00am 10.3 SE 2 3 1019.3 - 0.0 - - - - - - -
29/12:30am 10.2 SE 3 4 1019.4 - 0.0 - - - - - - -
29/12:00am 10.4 SE 3 4 1019.6 - 0.0 - - - - - - -
 
Date/Time
CST
Temp

°C
Wind Pressure Rain
since 9am
mm
Weather Cloud Vis
km
Sea
Height
m
Swell
Dir
 
Speed
knots
Gust
knots
hPa Trend Height
m
Period
s
Dir
28/11:30pm 10.4 SE 4 7 1019.6 - 0.0 - - - - - - -
28/11:00pm 10.0 CALM 0 0 1019.6 - 0.0 - - - - - - -
28/10:30pm 10.3 SSE 2 2 1019.6 - 0.0 - - - - - - -
28/10:00pm 10.4 SE 3 3 1019.6 - 0.0 - - - - - - -
28/09:30pm 11.1 SE 4 5 1019.5 - 0.0 - - - - - - -
28/09:00pm 11.1 SE 4 6 1019.2 - 0.0 - - - - - - -
28/08:30pm 11.2 SE 5 7 1019.1 - 0.0 - - - - - - -
28/08:00pm 11.4 SSE 5 9 1019.1 - 0.0 - - - - - - -
28/07:30pm 11.3 SE 3 5 1019.0 - 0.0 - - - - - - -
28/07:00pm 11.7 S 5 8 1018.7 - 0.0 - - - - - - -
28/06:30pm 10.8 SSW 1 2 1018.5 - 0.0 - - - - - - -
28/06:00pm 11.0 SSW 3 4 1018.4 - 0.0 - - - - - - -
28/05:30pm 11.3 SSW 3 4 1018.1 - 0.0 - - - - - - -
28/05:00pm 11.7 SSW 6 8 1017.9 - 0.0 - - - - - - -
28/04:30pm 12.1 SSE 6 9 1017.7 - 0.0 - - - - - - -
28/04:00pm 12.5 SSW 4 5 1017.5 - 0.0 - - - - - - -
28/03:30pm 12.5 S 9 13 1017.4 - 0.0 - - - - - - -
28/03:00pm 13.8 S 10 15 1017.1 - 0.0 - - - - - - -
28/02:30pm 13.4 SSW 10 15 1016.9 - 0.0 - - - - - - -
28/02:00pm 13.6 S 10 12 1016.4 - 0.0 - - - - - - -
28/01:30pm 14.8 S 10 16 1016.4 - 0.0 - - - - - - -
28/01:00pm 13.9 S 9 13 1016.5 - 0.0 - - - - - - -
28/12:30pm 13.9 S 11 14 1016.4 - 0.0 - - - - - - -
28/12:00pm 14.2 S 12 17 1016.5 - 0.0 - - - - - - -
28/11:30am 14.5 S 11 16 1016.6 - 0.0 - - - - - - -
28/11:00am 14.3 SE 7 11 1016.6 - 0.0 - - - - - - -
28/10:30am 12.8 SE 6 10 1016.6 - 0.0 - - - - - - -
28/10:00am 12.9 SSE 6 9 1016.3 - 0.0 - - - - - - -
28/09:30am 11.9 SE 4 6 1016.0 - 0.0 - - - - - - -
28/09:00am 9.9 SE 4 9 1015.6 - 7.0 - - - - - - -
28/08:30am 9.3 SE 2 3 1015.3 - 7.0 - - - - - - -
28/08:00am 8.4 CALM 0 0 1015.0 - 7.0 - - - - - - -
28/07:30am 7.2 CALM 0 0 1014.8 - 7.0 - - - - - - -
28/07:00am 7.7 SE 2 3 1014.3 - 7.0 - - - - - - -
28/06:30am 8.2 SSE 4 6 1013.7 - 7.0 - - - - - - -
28/06:00am 8.1 S 3 6 1013.2 - 7.0 - - - - - - -
28/05:30am 7.4 S 4 4 1012.7 - 7.0 - - - - - - -
28/05:00am 6.6 S 3 3 1012.2 - 7.0 - - - - - - -
28/04:30am 7.1 SSE 4 6 1011.9 - 7.0 - - - - - - -
28/04:00am 7.9 SSE 4 7 1011.5 - 7.0 - - - - - - -

Other Formats:

Comma delimited format used in spreadsheet applications
http://www.bom.gov.au/fwo/IDS60701/IDS60701.95816.axf

JavaScript Object Notation format (JSON) in row-major order
http://www.bom.gov.au/fwo/IDS60701/IDS60701.95816.json